sensor_id;sensor_type;location;lat;lon;timestamp;pressure;altitude;pressure_sealevel;temperature;humidity
54306;BME280;66145;45.188;5.712;2022-12-18T00:01:28;100112.09;;;15.35;47.58
54306;BME280;66145;45.188;5.712;2022-12-18T00:03:55;100017.44;;;14.68;47.60
54306;BME280;66145;45.188;5.712;2022-12-18T00:06:21;100147.88;;;15.64;47.64
54306;BME280;66145;45.188;5.712;2022-12-18T00:08:48;100052.94;;;15.04;47.78
54306;BME280;66145;45.188;5.712;2022-12-18T00:11:15;100074.47;;;15.11;47.92
54306;BME280;66145;45.188;5.712;2022-12-18T00:13:41;100135.59;;;15.46;47.81
54306;BME280;66145;45.188;5.712;2022-12-18T00:16:10;100137.50;;;15.51;47.90
54306;BME280;66145;45.188;5.712;2022-12-18T00:18:36;100168.03;;;15.63;47.79
54306;BME280;66145;45.188;5.712;2022-12-18T00:21:03;100072.00;;;15.04;47.61
54306;BME280;66145;45.188;5.712;2022-12-18T00:23:30;100171.59;;;15.59;47.74
54306;BME280;66145;45.188;5.712;2022-12-18T00:26:00;100060.50;;;14.92;47.81
54306;BME280;66145;45.188;5.712;2022-12-18T00:28:26;100134.72;;;15.30;47.61
54306;BME280;66145;45.188;5.712;2022-12-18T00:33:27;100148.38;;;15.46;47.37
54306;BME280;66145;45.188;5.712;2022-12-18T00:35:53;100114.28;;;15.28;47.87
54306;BME280;66145;45.188;5.712;2022-12-18T00:38:18;100083.97;;;15.09;47.94
54306;BME280;66145;45.188;5.712;2022-12-18T00:40:43;100170.22;;;15.61;47.60
54306;BME280;66145;45.188;5.712;2022-12-18T00:43:09;100091.06;;;15.10;47.59
54306;BME280;66145;45.188;5.712;2022-12-18T00:45:34;100183.59;;;15.63;47.66
54306;BME280;66145;45.188;5.712;2022-12-18T00:47:59;100180.59;;;15.64;47.39
54306;BME280;66145;45.188;5.712;2022-12-18T00:50:25;100164.75;;;15.56;47.65
54306;BME280;66145;45.188;5.712;2022-12-18T00:52:51;100158.47;;;15.50;47.62
54306;BME280;66145;45.188;5.712;2022-12-18T00:55:17;100180.03;;;15.62;47.58
54306;BME280;66145;45.188;5.712;2022-12-18T00:57:43;100167.75;;;15.49;47.79
54306;BME280;66145;45.188;5.712;2022-12-18T01:00:11;99979.44;;;14.30;47.92
54306;BME280;66145;45.188;5.712;2022-12-18T01:02:37;100169.41;;;15.61;47.65
54306;BME280;66145;45.188;5.712;2022-12-18T01:05:03;100125.19;;;15.28;47.63
54306;BME280;66145;45.188;5.712;2022-12-18T01:07:29;100173.47;;;15.58;47.85
54306;BME280;66145;45.188;5.712;2022-12-18T01:09:54;100163.13;;;15.50;47.99
54306;BME280;66145;45.188;5.712;2022-12-18T01:12:19;100113.97;;;15.14;47.90
54306;BME280;66145;45.188;5.712;2022-12-18T01:14:45;100176.22;;;15.58;48.08
54306;BME280;66145;45.188;5.712;2022-12-18T01:17:10;100131.97;;;15.25;47.61
54306;BME280;66145;45.188;5.712;2022-12-18T01:19:36;100121.06;;;15.15;48.09
54306;BME280;66145;45.188;5.712;2022-12-18T01:22:01;100164.19;;;15.39;47.81
54306;BME280;66145;45.188;5.712;2022-12-18T01:24:27;100180.84;;;15.52;47.92
54306;BME280;66145;45.188;5.712;2022-12-18T01:26:52;100170.19;;;15.41;48.17
54306;BME280;66145;45.188;5.712;2022-12-18T01:29:17;100157.63;;;15.29;48.34
54306;BME280;66145;45.188;5.712;2022-12-18T01:31:43;100173.47;;;15.43;47.69
54306;BME280;66145;45.188;5.712;2022-12-18T01:34:08;100193.38;;;15.54;47.73
54306;BME280;66145;45.188;5.712;2022-12-18T01:36:36;100173.47;;;15.43;47.75
54306;BME280;66145;45.188;5.712;2022-12-18T01:39:04;100118.59;;;15.08;47.90
54306;BME280;66145;45.188;5.712;2022-12-18T01:41:31;100168.00;;;15.38;48.22
54306;BME280;66145;45.188;5.712;2022-12-18T01:50:23;100157.91;;;15.28;48.05
54306;BME280;66145;45.188;5.712;2022-12-18T01:52:52;100193.13;;;15.50;47.86
54306;BME280;66145;45.188;5.712;2022-12-18T01:55:20;100208.94;;;15.53;48.10
54306;BME280;66145;45.188;5.712;2022-12-18T01:57:47;100154.59;;;15.15;47.89
54306;BME280;66145;45.188;5.712;2022-12-18T02:00:18;100108.75;;;14.92;48.09
54306;BME280;66145;45.188;5.712;2022-12-18T02:02:45;100206.47;;;15.51;47.97
54306;BME280;66145;45.188;5.712;2022-12-18T02:05:13;100208.09;;;15.52;47.92
54306;BME280;66145;45.188;5.712;2022-12-18T02:10:32;100200.75;;;15.53;48.08
54306;BME280;66145;45.188;5.712;2022-12-18T02:15:51;99987.47;;;13.99;47.88
54306;BME280;66145;45.188;5.712;2022-12-18T02:18:28;100167.13;;;15.21;48.00
54306;BME280;66145;45.188;5.712;2022-12-18T02:21:28;100176.97;;;15.28;47.84
54306;BME280;66145;45.188;5.712;2022-12-18T02:26:45;100202.66;;;15.52;47.82
54306;BME280;66145;45.188;5.712;2022-12-18T02:29:15;100125.66;;;14.99;48.03
54306;BME280;66145;45.188;5.712;2022-12-18T02:31:58;100124.56;;;14.95;47.87
54306;BME280;66145;45.188;5.712;2022-12-18T02:34:29;100148.56;;;15.08;47.90
54306;BME280;66145;45.188;5.712;2022-12-18T02:36:57;100183.78;;;15.20;48.24
54306;BME280;66145;45.188;5.712;2022-12-18T02:39:25;100021.84;;;14.21;47.95
54306;BME280;66145;45.188;5.712;2022-12-18T02:41:51;100158.66;;;15.08;47.70
54306;BME280;66145;45.188;5.712;2022-12-18T02:44:17;100125.59;;;14.88;48.00
54306;BME280;66145;45.188;5.712;2022-12-18T02:46:45;100127.28;;;14.95;47.95
54306;BME280;66145;45.188;5.712;2022-12-18T02:49:26;100131.06;;;14.88;47.86
54306;BME280;66145;45.188;5.712;2022-12-18T02:52:24;100216.00;;;15.39;47.88
54306;BME280;66145;45.188;5.712;2022-12-18T02:58:03;100193.03;;;15.19;47.65
54306;BME280;66145;45.188;5.712;2022-12-18T03:00:37;100238.38;;;15.51;47.67
54306;BME280;66145;45.188;5.712;2022-12-18T03:05:50;100232.88;;;15.41;47.82
54306;BME280;66145;45.188;5.712;2022-12-18T03:08:21;100162.72;;;15.00;47.28
54306;BME280;66145;45.188;5.712;2022-12-18T03:10:54;100047.16;;;14.22;48.06
54306;BME280;66145;45.188;5.712;2022-12-18T03:13:26;100220.88;;;15.31;47.80
54306;BME280;66145;45.188;5.712;2022-12-18T03:15:54;100174.72;;;15.04;47.62
54306;BME280;66145;45.188;5.712;2022-12-18T03:18:35;100236.47;;;15.46;47.60
54306;BME280;66145;45.188;5.712;2022-12-18T03:21:05;100046.78;;;14.03;47.87
54306;BME280;66145;45.188;5.712;2022-12-18T03:23:35;100222.22;;;15.29;47.89
54306;BME280;66145;45.188;5.712;2022-12-18T03:26:10;100247.66;;;15.50;47.81
54306;BME280;66145;45.188;5.712;2022-12-18T03:28:43;100188.09;;;15.05;47.96
54306;BME280;66145;45.188;5.712;2022-12-18T03:31:12;100201.47;;;15.17;47.76
54306;BME280;66145;45.188;5.712;2022-12-18T03:33:44;100248.72;;;15.44;47.84
54306;BME280;66145;45.188;5.712;2022-12-18T03:36:11;100051.78;;;14.21;47.59
54306;BME280;66145;45.188;5.712;2022-12-18T03:38:37;100255.81;;;15.50;47.80
54306;BME280;66145;45.188;5.712;2022-12-18T03:41:15;100238.84;;;15.27;47.77
54306;BME280;66145;45.188;5.712;2022-12-18T03:43:51;100264.00;;;15.50;47.59
54306;BME280;66145;45.188;5.712;2022-12-18T03:46:32;100168.16;;;14.95;48.06
54306;BME280;66145;45.188;5.712;2022-12-18T03:49:08;100179.59;;;14.97;47.67
54306;BME280;66145;45.188;5.712;2022-12-18T03:51:50;100066.72;;;14.19;47.66
54306;BME280;66145;45.188;5.712;2022-12-18T03:54:18;100170.03;;;14.89;47.38
54306;BME280;66145;45.188;5.712;2022-12-18T03:56:48;100164.56;;;14.84;47.19
54306;BME280;66145;45.188;5.712;2022-12-18T03:59:18;100169.19;;;14.83;47.77
54306;BME280;66145;45.188;5.712;2022-12-18T04:01:49;100206.59;;;15.03;47.39
54306;BME280;66145;45.188;5.712;2022-12-18T04:04:18;100284.19;;;15.49;47.77
54306;BME280;66145;45.188;5.712;2022-12-18T04:06:46;100161.53;;;14.80;47.64
54306;BME280;66145;45.188;5.712;2022-12-18T04:09:13;100281.19;;;15.50;47.65
54306;BME280;66145;45.188;5.712;2022-12-18T04:11:41;100091.50;;;14.22;47.34
54306;BME280;66145;45.188;5.712;2022-12-18T04:14:09;100034.44;;;13.84;47.60
54306;BME280;66145;45.188;5.712;2022-12-18T04:16:34;100276.81;;;15.49;47.79
54306;BME280;66145;45.188;5.712;2022-12-18T04:18:59;100283.09;;;15.50;47.64
54306;BME280;66145;45.188;5.712;2022-12-18T04:21:24;100279.53;;;15.49;47.74
54306;BME280;66145;45.188;5.712;2022-12-18T04:23:50;100244.03;;;15.29;47.49
54306;BME280;66145;45.188;5.712;2022-12-18T04:26:15;100085.25;;;14.22;47.25
54306;BME280;66145;45.188;5.712;2022-12-18T04:28:41;100261.97;;;15.19;47.70
54306;BME280;66145;45.188;5.712;2022-12-18T04:31:06;100082.25;;;14.18;47.45
54306;BME280;66145;45.188;5.712;2022-12-18T04:33:31;100287.72;;;15.49;47.57
54306;BME280;66145;45.188;5.712;2022-12-18T04:35:57;100186.63;;;14.87;47.31
54306;BME280;66145;45.188;5.712;2022-12-18T04:38:23;100252.19;;;15.24;47.61
54306;BME280;66145;45.188;5.712;2022-12-18T04:40:48;100281.44;;;15.39;47.35
54306;BME280;66145;45.188;5.712;2022-12-18T04:43:13;100210.38;;;14.97;47.34
54306;BME280;66145;45.188;5.712;2022-12-18T04:45:39;100213.06;;;14.92;47.63
54306;BME280;66145;45.188;5.712;2022-12-18T04:48:04;100218.81;;;14.96;47.57
54306;BME280;66145;45.188;5.712;2022-12-18T04:50:30;100241.75;;;15.00;47.66
54306;BME280;66145;45.188;5.712;2022-12-18T04:52:56;100231.94;;;15.04;47.57
54306;BME280;66145;45.188;5.712;2022-12-18T04:55:22;100216.91;;;14.91;47.63
54306;BME280;66145;45.188;5.712;2022-12-18T04:57:47;100236.03;;;15.07;47.48
54306;BME280;66145;45.188;5.712;2022-12-18T05:00:13;100291.75;;;15.31;47.55
54306;BME280;66145;45.188;5.712;2022-12-18T05:02:38;100311.16;;;15.50;47.47
54306;BME280;66145;45.188;5.712;2022-12-18T05:05:04;100315.25;;;15.48;47.46
54306;BME280;66145;45.188;5.712;2022-12-18T05:07:30;100328.38;;;15.51;47.11
54306;BME280;66145;45.188;5.712;2022-12-18T05:09:55;100286.81;;;15.28;47.64
54306;BME280;66145;45.188;5.712;2022-12-18T05:12:20;100320.44;;;15.44;47.55
54306;BME280;66145;45.188;5.712;2022-12-18T05:14:48;100269.59;;;15.12;47.38
54306;BME280;66145;45.188;5.712;2022-12-18T05:17:13;100228.88;;;14.90;47.31
54306;BME280;66145;45.188;5.712;2022-12-18T05:19:39;100314.94;;;15.39;47.50
54306;BME280;66145;45.188;5.712;2022-12-18T05:22:04;100342.00;;;15.51;47.08
54306;BME280;66145;45.188;5.712;2022-12-18T05:24:29;100259.44;;;15.02;47.37
54306;BME280;66145;45.188;5.712;2022-12-18T05:26:55;100302.06;;;15.24;47.43
54306;BME280;66145;45.188;5.712;2022-12-18T05:29:20;100229.38;;;14.82;47.36
54306;BME280;66145;45.188;5.712;2022-12-18T05:31:45;100265.72;;;15.03;47.50
54306;BME280;66145;45.188;5.712;2022-12-18T05:34:11;100298.53;;;15.24;47.52
54306;BME280;66145;45.188;5.712;2022-12-18T05:36:36;100315.22;;;15.38;47.36
54306;BME280;66145;45.188;5.712;2022-12-18T05:39:02;100307.56;;;15.34;47.29
54306;BME280;66145;45.188;5.712;2022-12-18T05:41:27;100255.88;;;15.02;47.37
54306;BME280;66145;45.188;5.712;2022-12-18T05:43:54;100247.44;;;14.98;47.54
54306;BME280;66145;45.188;5.712;2022-12-18T05:46:19;100361.34;;;15.49;47.42
54306;BME280;66145;45.188;5.712;2022-12-18T05:48:45;100344.97;;;15.49;47.26
54306;BME280;66145;45.188;5.712;2022-12-18T05:51:15;100271.72;;;15.00;47.13
54306;BME280;66145;45.188;5.712;2022-12-18T05:53:41;100133.94;;;14.18;47.29
54306;BME280;66145;45.188;5.712;2022-12-18T05:56:10;100256.34;;;14.83;47.46
54306;BME280;66145;45.188;5.712;2022-12-18T05:58:36;100147.28;;;14.20;47.65
54306;BME280;66145;45.188;5.712;2022-12-18T06:01:16;100329.09;;;15.31;47.15
54306;BME280;66145;45.188;5.712;2022-12-18T06:03:42;100156.06;;;14.27;47.41
54306;BME280;66145;45.188;5.712;2022-12-18T06:06:26;100357.53;;;15.50;47.17
54306;BME280;66145;45.188;5.712;2022-12-18T06:08:51;100368.44;;;15.50;47.65
54306;BME280;66145;45.188;5.712;2022-12-18T06:11:19;100364.06;;;15.44;47.38
54306;BME280;66145;45.188;5.712;2022-12-18T06:13:45;100337.81;;;15.33;47.36
54306;BME280;66145;45.188;5.712;2022-12-18T06:16:11;100354.97;;;15.28;47.25
54306;BME280;66145;45.188;5.712;2022-12-18T06:18:37;100175.22;;;14.10;47.18
54306;BME280;66145;45.188;5.712;2022-12-18T06:21:02;100313.09;;;14.97;47.50
54306;BME280;66145;45.188;5.712;2022-12-18T06:23:28;100220.88;;;14.35;47.59
54306;BME280;66145;45.188;5.712;2022-12-18T06:25:53;100306.56;;;14.98;47.54
54306;BME280;66145;45.188;5.712;2022-12-18T06:28:19;100368.34;;;15.35;47.56
54306;BME280;66145;45.188;5.712;2022-12-18T06:30:45;100348.94;;;15.21;47.28
54306;BME280;66145;45.188;5.712;2022-12-18T06:33:11;100376.56;;;15.40;47.49
54306;BME280;66145;45.188;5.712;2022-12-18T06:35:36;100350.81;;;15.15;47.36
54306;BME280;66145;45.188;5.712;2022-12-18T06:38:02;100295.81;;;14.81;47.23
54306;BME280;66145;45.188;5.712;2022-12-18T06:40:28;100415.88;;;15.49;47.52
54306;BME280;66145;45.188;5.712;2022-12-18T06:42:54;100421.31;;;15.49;47.51
54306;BME280;66145;45.188;5.712;2022-12-18T06:45:19;100362.56;;;15.21;47.31
54306;BME280;66145;45.188;5.712;2022-12-18T06:47:44;100185.56;;;14.08;47.20
54306;BME280;66145;45.188;5.712;2022-12-18T06:50:10;100287.69;;;14.53;47.32
54306;BME280;66145;45.188;5.712;2022-12-18T06:52:35;100351.56;;;15.05;47.66
54306;BME280;66145;45.188;5.712;2022-12-18T06:55:02;100402.44;;;15.32;47.35
54306;BME280;66145;45.188;5.712;2022-12-18T06:57:27;100413.66;;;15.41;47.26
54306;BME280;66145;45.188;5.712;2022-12-18T06:59:52;100347.91;;;14.89;47.32
54306;BME280;66145;45.188;5.712;2022-12-18T07:02:18;100357.50;;;14.97;47.45
54306;BME280;66145;45.188;5.712;2022-12-18T07:04:43;100348.41;;;14.86;47.41
54306;BME280;66145;45.188;5.712;2022-12-18T07:07:08;100431.91;;;15.35;47.47
54306;BME280;66145;45.188;5.712;2022-12-18T07:09:34;100452.88;;;15.35;47.62
54306;BME280;66145;45.188;5.712;2022-12-18T07:11:59;100422.22;;;15.17;47.54
54306;BME280;66145;45.188;5.712;2022-12-18T07:14:24;100468.47;;;15.45;47.46
54306;BME280;66145;45.188;5.712;2022-12-18T07:16:50;100461.69;;;15.47;47.21
54306;BME280;66145;45.188;5.712;2022-12-18T07:19:15;100460.88;;;15.47;47.49
54306;BME280;66145;45.188;5.712;2022-12-18T07:21:40;100415.34;;;15.10;47.27
54306;BME280;66145;45.188;5.712;2022-12-18T07:24:06;100393.19;;;15.01;47.62
54306;BME280;66145;45.188;5.712;2022-12-18T07:26:32;100468.22;;;15.46;47.48
54306;BME280;66145;45.188;5.712;2022-12-18T07:28:57;100400.56;;;15.00;47.33
54306;BME280;66145;45.188;5.712;2022-12-18T07:31:23;100263.16;;;14.15;47.64
54306;BME280;66145;45.188;5.712;2022-12-18T07:33:50;100450.94;;;15.30;47.70
54306;BME280;66145;45.188;5.712;2022-12-18T07:36:16;100487.00;;;15.43;47.37
54306;BME280;66145;45.188;5.712;2022-12-18T07:38:42;100463.00;;;15.40;47.41
54306;BME280;66145;45.188;5.712;2022-12-18T07:41:10;100361.88;;;14.66;47.31
54306;BME280;66145;45.188;5.712;2022-12-18T07:43:36;100233.56;;;13.92;47.57
54306;BME280;66145;45.188;5.712;2022-12-18T07:46:02;100486.75;;;15.44;47.38
54306;BME280;66145;45.188;5.712;2022-12-18T07:48:28;100380.56;;;14.84;47.56
54306;BME280;66145;45.188;5.712;2022-12-18T07:50:58;100455.81;;;15.28;47.52
54306;BME280;66145;45.188;5.712;2022-12-18T07:53:23;100432.88;;;15.19;47.44
54306;BME280;66145;45.188;5.712;2022-12-18T07:55:48;100494.38;;;15.42;47.58
54306;BME280;66145;45.188;5.712;2022-12-18T07:58:14;100479.31;;;15.34;47.45
54306;BME280;66145;45.188;5.712;2022-12-18T08:00:39;100483.47;;;15.42;47.43
54306;BME280;66145;45.188;5.712;2022-12-18T08:03:04;100431.63;;;14.99;47.18
54306;BME280;66145;45.188;5.712;2022-12-18T08:05:30;100486.94;;;15.32;47.23
54306;BME280;66145;45.188;5.712;2022-12-18T08:07:55;100491.22;;;15.61;46.20
54306;BME280;66145;45.188;5.712;2022-12-18T08:10:21;100479.56;;;15.71;44.93
54306;BME280;66145;45.188;5.712;2022-12-18T08:12:49;100382.22;;;15.28;44.51
54306;BME280;66145;45.188;5.712;2022-12-18T08:15:16;100389.34;;;15.34;44.49
54306;BME280;66145;45.188;5.712;2022-12-18T08:17:41;100485.94;;;15.87;44.32
54306;BME280;66145;45.188;5.712;2022-12-18T08:20:07;100471.78;;;15.90;44.41
54306;BME280;66145;45.188;5.712;2022-12-18T08:22:34;100465.13;;;15.80;44.35
54306;BME280;66145;45.188;5.712;2022-12-18T08:25:00;100431.72;;;15.52;44.44
54306;BME280;66145;45.188;5.712;2022-12-18T08:27:25;100268.91;;;14.52;44.43
54306;BME280;66145;45.188;5.712;2022-12-18T08:29:51;100472.19;;;15.71;44.40
54306;BME280;66145;45.188;5.712;2022-12-18T08:32:16;100338.13;;;14.94;44.29
54306;BME280;66145;45.188;5.712;2022-12-18T08:34:42;100314.94;;;14.86;44.29
54306;BME280;66145;45.188;5.712;2022-12-18T08:37:07;100463.72;;;15.73;44.33
54306;BME280;66145;45.188;5.712;2022-12-18T08:39:32;100264.81;;;14.49;44.12
54306;BME280;66145;45.188;5.712;2022-12-18T08:41:57;100459.63;;;15.70;44.36
54306;BME280;66145;45.188;5.712;2022-12-18T08:44:41;100483.78;;;15.89;44.16
54306;BME280;66145;45.188;5.712;2022-12-18T08:47:07;100479.13;;;15.89;44.16
54306;BME280;66145;45.188;5.712;2022-12-18T08:49:33;100423.81;;;15.51;44.29
54306;BME280;66145;45.188;5.712;2022-12-18T08:51:59;100484.59;;;15.89;44.11
54306;BME280;66145;45.188;5.712;2022-12-18T08:54:24;100410.47;;;15.55;44.51
54306;BME280;66145;45.188;5.712;2022-12-18T08:56:50;100291.94;;;14.71;44.07
54306;BME280;66145;45.188;5.712;2022-12-18T08:59:19;100347.44;;;15.03;44.16
54306;BME280;66145;45.188;5.712;2022-12-18T09:01:45;100241.63;;;14.41;43.84
54306;BME280;66145;45.188;5.712;2022-12-18T09:04:11;100420.28;;;15.56;44.32
54306;BME280;66145;45.188;5.712;2022-12-18T09:06:37;100402.13;;;15.29;44.02
54306;BME280;66145;45.188;5.712;2022-12-18T09:09:03;100386.06;;;15.32;44.21
54306;BME280;66145;45.188;5.712;2022-12-18T09:11:30;100471.72;;;15.85;44.09
54306;BME280;66145;45.188;5.712;2022-12-18T09:13:56;100436.97;;;15.64;44.31
54306;BME280;66145;45.188;5.712;2022-12-18T09:16:23;100414.78;;;15.45;44.00
54306;BME280;66145;45.188;5.712;2022-12-18T09:18:49;100353.53;;;15.15;43.94
54306;BME280;66145;45.188;5.712;2022-12-18T09:21:16;100463.72;;;15.73;44.28
54306;BME280;66145;45.188;5.712;2022-12-18T09:23:43;100404.34;;;15.32;44.15
54306;BME280;66145;45.188;5.712;2022-12-18T09:26:08;100384.16;;;15.33;43.88
54306;BME280;66145;45.188;5.712;2022-12-18T09:28:34;100469.56;;;15.87;44.05
54306;BME280;66145;45.188;5.712;2022-12-18T09:31:04;100369.38;;;15.24;43.97
54306;BME280;66145;45.188;5.712;2022-12-18T09:33:31;100460.00;;;15.84;43.95
54306;BME280;66145;45.188;5.712;2022-12-18T09:35:56;100467.13;;;15.85;44.07
54306;BME280;66145;45.188;5.712;2022-12-18T09:38:22;100364.75;;;15.24;45.03
54306;BME280;66145;45.188;5.712;2022-12-18T09:40:51;100470.22;;;16.04;44.77
54306;BME280;66145;45.188;5.712;2022-12-18T09:43:20;100435.13;;;15.80;44.29
54306;BME280;66145;45.188;5.712;2022-12-18T09:45:55;100359.38;;;15.34;44.42
54306;BME280;66145;45.188;5.712;2022-12-18T09:48:38;100471.81;;;15.95;44.02
54306;BME280;66145;45.188;5.712;2022-12-18T09:51:18;100488.75;;;16.02;44.00
54306;BME280;66145;45.188;5.712;2022-12-18T09:53:52;100425.53;;;15.68;43.96
54306;BME280;66145;45.188;5.712;2022-12-18T09:56:20;100480.56;;;16.02;43.84
54306;BME280;66145;45.188;5.712;2022-12-18T09:59:00;100494.22;;;16.02;43.88
54306;BME280;66145;45.188;5.712;2022-12-18T10:01:27;100490.13;;;16.05;44.30
54306;BME280;66145;45.188;5.712;2022-12-18T10:03:53;100419.47;;;15.60;43.99
54306;BME280;66145;45.188;5.712;2022-12-18T10:07:03;100491.25;;;16.09;44.23
54306;BME280;66145;45.188;5.712;2022-12-18T10:09:20;100492.06;;;16.09;43.85
54306;BME280;66145;45.188;5.712;2022-12-18T10:12:06;100480.31;;;16.09;43.97
54306;BME280;66145;45.188;5.712;2022-12-18T10:17:43;100408.50;;;15.45;44.65
54306;BME280;66145;45.188;5.712;2022-12-18T10:28:14;100472.41;;;16.12;44.72
54306;BME280;66145;45.188;5.712;2022-12-18T10:30:42;100366.78;;;15.44;44.86
54306;BME280;66145;45.188;5.712;2022-12-18T10:33:17;100480.03;;;16.05;44.63
54306;BME280;66145;45.188;5.712;2022-12-18T10:35:43;100461.22;;;16.04;44.81
54306;BME280;66145;45.188;5.712;2022-12-18T10:41:01;100460.41;;;16.14;45.24
54306;BME280;66145;45.188;5.712;2022-12-18T10:43:32;100445.69;;;16.09;45.27
54306;BME280;66145;45.188;5.712;2022-12-18T10:48:30;100365.75;;;15.56;45.28
54306;BME280;66145;45.188;5.712;2022-12-18T10:50:56;100188.53;;;14.44;45.16
54306;BME280;66145;45.188;5.712;2022-12-18T10:53:27;100342.22;;;15.39;45.33
54306;BME280;66145;45.188;5.712;2022-12-18T10:55:55;100329.91;;;15.31;45.51
54306;BME280;66145;45.188;5.712;2022-12-18T10:58:35;100335.13;;;15.38;45.14
54306;BME280;66145;45.188;5.712;2022-12-18T11:01:16;100359.75;;;15.59;44.48
54306;BME280;66145;45.188;5.712;2022-12-18T11:03:44;100426.78;;;15.98;44.70
54306;BME280;66145;45.188;5.712;2022-12-18T11:06:13;100450.81;;;16.06;44.67
54306;BME280;66145;45.188;5.712;2022-12-18T11:08:40;100437.19;;;16.06;44.33
54306;BME280;66145;45.188;5.712;2022-12-18T11:11:19;100264.88;;;14.97;44.75
54306;BME280;66145;45.188;5.712;2022-12-18T11:14:05;100376.72;;;15.71;44.22
54306;BME280;66145;45.188;5.712;2022-12-18T11:16:51;100426.00;;;16.07;44.93
54306;BME280;66145;45.188;5.712;2022-12-18T11:21:49;100379.53;;;15.87;44.15
54306;BME280;66145;45.188;5.712;2022-12-18T11:24:35;100407.72;;;16.08;44.24
54306;BME280;66145;45.188;5.712;2022-12-18T11:27:04;100302.44;;;15.48;44.09
54306;BME280;66145;45.188;5.712;2022-12-18T11:29:35;100316.94;;;15.54;43.91
54306;BME280;66145;45.188;5.712;2022-12-18T11:32:38;100391.34;;;16.08;43.85
54306;BME280;66145;45.188;5.712;2022-12-18T11:38:18;100392.97;;;16.09;43.77
54306;BME280;66145;45.188;5.712;2022-12-18T11:40:56;100284.47;;;15.47;43.98
54306;BME280;66145;45.188;5.712;2022-12-18T11:43:31;100258.22;;;15.31;44.03
54306;BME280;66145;45.188;5.712;2022-12-18T11:46:07;100368.94;;;16.06;43.94
54306;BME280;66145;45.188;5.712;2022-12-18T11:48:43;100133.56;;;14.47;44.10
54306;BME280;66145;45.188;5.712;2022-12-18T11:51:14;100296.47;;;15.57;43.98
54306;BME280;66145;45.188;5.712;2022-12-18T11:53:42;100291.31;;;15.55;43.87
54306;BME280;66145;45.188;5.712;2022-12-18T11:58:58;100371.44;;;16.07;43.91
54306;BME280;66145;45.188;5.712;2022-12-18T12:01:51;100361.59;;;16.06;43.89
54306;BME280;66145;45.188;5.712;2022-12-18T12:04:33;100354.22;;;16.07;43.87
54306;BME280;66145;45.188;5.712;2022-12-18T12:13:15;100344.13;;;16.07;44.37
54306;BME280;66145;45.188;5.712;2022-12-18T12:21:02;100253.13;;;15.55;44.14
54306;BME280;66145;45.188;5.712;2022-12-18T12:26:02;100319.56;;;16.12;43.99
54306;BME280;66145;45.188;5.712;2022-12-18T12:34:05;100275.63;;;15.99;44.28
54306;BME280;66145;45.188;5.712;2022-12-18T12:39:42;100156.50;;;15.20;44.74
54306;BME280;66145;45.188;5.712;2022-12-18T12:42:26;100303.50;;;16.32;44.74
54306;BME280;66145;45.188;5.712;2022-12-18T12:45:37;100319.34;;;16.35;44.45
54306;BME280;66145;45.188;5.712;2022-12-18T12:48:13;100301.84;;;16.31;44.97
54306;BME280;66145;45.188;5.712;2022-12-18T12:50:41;100259.78;;;16.06;45.01
54306;BME280;66145;45.188;5.712;2022-12-18T12:53:09;100305.09;;;16.22;45.71
54306;BME280;66145;45.188;5.712;2022-12-18T12:55:41;100316.84;;;16.18;44.53
54306;BME280;66145;45.188;5.712;2022-12-18T13:01:18;100225.88;;;15.65;45.03
54306;BME280;66145;45.188;5.712;2022-12-18T13:08:58;100297.47;;;16.24;45.68
54306;BME280;66145;45.188;5.712;2022-12-18T13:11:42;100292.56;;;16.32;45.42
54306;BME280;66145;45.188;5.712;2022-12-18T13:14:30;100219.94;;;15.89;45.59
54306;BME280;66145;45.188;5.712;2022-12-18T13:19:41;100291.47;;;16.33;45.65
54306;BME280;66145;45.188;5.712;2022-12-18T13:22:24;100258.97;;;16.16;46.01
54306;BME280;66145;45.188;5.712;2022-12-18T13:24:52;100228.94;;;16.00;46.31
54306;BME280;66145;45.188;5.712;2022-12-18T13:30:51;100274.00;;;16.34;46.54
54306;BME280;66145;45.188;5.712;2022-12-18T13:35:55;100069.56;;;15.18;46.61
54306;BME280;66145;45.188;5.712;2022-12-18T13:41:24;100252.44;;;16.42;46.69
54306;BME280;66145;45.188;5.712;2022-12-18T13:43:56;100238.50;;;16.23;46.65
54306;BME280;66145;45.188;5.712;2022-12-18T13:46:48;100251.88;;;16.40;46.57
54306;BME280;66145;45.188;5.712;2022-12-18T13:49:36;100253.25;;;16.43;46.63
54306;BME280;66145;45.188;5.712;2022-12-18T13:52:16;100066.84;;;15.18;46.74
54306;BME280;66145;45.188;5.712;2022-12-18T13:54:45;100223.50;;;16.21;46.72
54306;BME280;66145;45.188;5.712;2022-12-18T13:57:29;100184.47;;;15.94;46.84
54306;BME280;66145;45.188;5.712;2022-12-18T13:59:56;100243.69;;;16.20;46.80
54306;BME280;66145;45.188;5.712;2022-12-18T14:02:24;100233.84;;;16.29;46.74
54306;BME280;66145;45.188;5.712;2022-12-18T14:04:50;100256.25;;;16.36;46.77
54306;BME280;66145;45.188;5.712;2022-12-18T14:07:23;100173.53;;;15.89;46.47
54306;BME280;66145;45.188;5.712;2022-12-18T14:10:33;100236.03;;;16.32;46.61
54306;BME280;66145;45.188;5.712;2022-12-18T14:12:39;100251.34;;;16.38;46.52
54306;BME280;66145;45.188;5.712;2022-12-18T14:20:24;100239.06;;;16.25;46.30
54306;BME280;66145;45.188;5.712;2022-12-18T14:22:50;100259.25;;;16.40;46.30
54306;BME280;66145;45.188;5.712;2022-12-18T14:25:21;100171.38;;;15.86;46.33
54306;BME280;66145;45.188;5.712;2022-12-18T14:27:51;100178.75;;;15.91;46.10
54306;BME280;66145;45.188;5.712;2022-12-18T14:30:24;100276.44;;;16.46;46.22
54306;BME280;66145;45.188;5.712;2022-12-18T14:35:33;100266.34;;;16.46;46.03
54306;BME280;66145;45.188;5.712;2022-12-18T14:40:54;100202.75;;;16.09;46.00
54306;BME280;66145;45.188;5.712;2022-12-18T14:43:21;100268.25;;;16.46;46.09